Time;durP1;ratioP1;P1;durP2;ratioP2;P2;SDS_P1;SDS_P2;PMS_P1;PMS_P2;Temp;Humidity;BMP_temperature;BMP_pressure;BME280_temperature;BME280_humidity;BME280_pressure;Samples;Min_cycle;Max_cycle;Signal;HPM_P1;HPM_P2
2021/04/13 00:01:16;;;;;;;2.90;0.40;;;0.70;99.90;;;;;;5048336;28;20151;-75
2021/04/13 00:03:52;;;;;;;3.10;0.38;;;0.60;99.90;;;;;;5044847;28;20033;-75
2021/04/13 00:06:40;;;;;;;3.00;0.40;;;0.40;99.90;;;;;;5034761;22;20044;-75
2021/04/13 00:09:17;;;;;;;1.02;0.30;;;0.40;99.90;;;;;;5068139;28;20021;-75
2021/04/13 00:11:47;;;;;;;3.15;0.60;;;0.50;99.90;;;;;;5086190;28;20024;-75
2021/04/13 00:14:19;;;;;;;3.35;0.40;;;0.40;99.90;;;;;;5067876;28;20062;-75
2021/04/13 00:16:46;;;;;;;2.35;0.32;;;0.40;99.90;;;;;;5086180;28;20032;-75
2021/04/13 00:19:12;;;;;;;2.67;0.50;;;0.40;99.90;;;;;;5068073;28;20040;-75
2021/04/13 00:21:42;;;;;;;1.83;0.60;;;0.50;99.90;;;;;;5068162;28;20031;-76
2021/04/13 00:24:11;;;;;;;;;;;0.50;99.90;;;;;;5068272;28;20035;-75
2021/04/13 00:26:37;;;;;;;1.42;0.40;;;0.60;99.90;;;;;;5084728;28;19912;-75
2021/04/13 00:29:10;;;;;;;1.85;1.25;;;0.60;99.90;;;;;;5085860;28;20065;-75
2021/04/13 00:31:42;;;;;;;1.73;0.40;;;0.50;99.90;;;;;;5067859;28;20020;-75
2021/04/13 00:34:17;;;;;;;2.97;0.60;;;0.60;99.90;;;;;;5051035;28;20041;-75
2021/04/13 00:36:42;;;;;;;4.60;0.80;;;0.70;99.90;;;;;;5051104;28;20067;-75
2021/04/13 00:39:34;;;;;;;1.33;0.47;;;0.70;99.90;;;;;;5067547;28;20033;-76
2021/04/13 00:42:05;;;;;;;2.50;0.40;;;0.70;99.90;;;;;;5065869;28;20044;-75
2021/04/13 00:44:35;;;;;;;1.90;0.40;;;0.60;99.90;;;;;;5067742;28;20040;-75
2021/04/13 00:47:01;;;;;;;;;;;0.60;99.90;;;;;;5068299;28;20028;-75
2021/04/13 00:49:30;;;;;;;2.67;0.40;;;0.70;99.90;;;;;;5085650;28;19908;-76
2021/04/13 00:52:01;;;;;;;1.40;0.40;;;0.70;99.90;;;;;;5067773;28;20541;-75
2021/04/13 00:54:32;;;;;;;;;;;0.70;99.90;;;;;;5050916;28;20048;-76
2021/04/13 00:57:06;;;;;;;2.35;0.40;;;0.70;99.90;;;;;;5067694;28;19908;-75
2021/04/13 00:59:32;;;;;;;1.52;0.40;;;0.60;99.90;;;;;;5050860;28;20032;-75
2021/04/13 01:02:02;;;;;;;3.03;0.40;;;0.90;99.90;;;;;;5067481;28;20030;-75
2021/04/13 01:07:49;;;;;;;8.13;0.68;;;1.10;99.90;;;;;;4982467;28;20061;-75
2021/04/13 01:10:30;;;;;;;1.58;0.30;;;1.10;99.90;;;;;;5003504;28;20104;-76
2021/04/13 01:13:29;;;;;;;1.65;0.40;;;1.20;99.90;;;;;;5003907;28;20038;-75
2021/04/13 01:15:55;;;;;;;3.28;0.43;;;1.30;99.90;;;;;;5006350;28;20077;-75
2021/04/13 01:18:31;;;;;;;1.13;0.35;;;1.40;99.90;;;;;;5007552;28;20049;-75
2021/04/13 01:21:11;;;;;;;4.28;0.60;;;1.40;99.90;;;;;;5007742;28;20030;-76
2021/04/13 01:24:03;;;;;;;5.85;0.50;;;1.50;99.90;;;;;;5007481;28;20026;-76
2021/04/13 01:26:34;;;;;;;1.53;0.40;;;1.50;99.90;;;;;;5007394;28;20050;-76
2021/04/13 01:29:00;;;;;;;2.78;0.60;;;1.50;99.90;;;;;;5007457;28;20031;-75
2021/04/13 01:34:13;;;;;;;2.83;0.40;;;1.60;99.90;;;;;;5007114;28;20077;-75
2021/04/13 01:36:43;;;;;;;2.78;0.70;;;1.70;99.90;;;;;;5007277;28;20077;-76
2021/04/13 01:39:16;;;;;;;2.15;0.60;;;1.80;99.90;;;;;;5007077;28;20038;-76
2021/04/13 01:44:36;;;;;;;3.70;0.65;;;1.70;99.90;;;;;;5035424;28;20047;-76
2021/04/13 01:47:04;;;;;;;5.18;0.52;;;1.70;99.90;;;;;;5087802;28;20025;-75
2021/04/13 01:49:35;;;;;;;3.17;0.57;;;1.70;99.90;;;;;;5070818;28;20442;-76
2021/04/13 01:52:01;;;;;;;4.25;0.50;;;1.70;99.90;;;;;;5070790;28;20490;-76
2021/04/13 01:54:28;;;;;;;5.80;0.95;;;1.60;99.90;;;;;;5088710;28;20044;-75
2021/04/13 01:57:17;;;;;;;2.05;0.40;;;1.60;99.90;;;;;;5088653;28;20085;-76
2021/04/13 01:59:50;;;;;;;4.22;0.60;;;1.60;99.90;;;;;;5088860;28;20036;-76
2021/04/13 02:02:31;;;;;;;4.55;0.88;;;1.70;99.90;;;;;;5096081;28;20028;-75
2021/04/13 02:05:20;;;;;;;3.42;0.60;;;1.60;99.90;;;;;;5101838;28;20028;-76
2021/04/13 02:07:57;;;;;;;2.47;0.38;;;1.60;99.90;;;;;;5029332;28;20096;-76
2021/04/13 02:10:42;;;;;;;2.47;0.40;;;1.40;99.90;;;;;;5046201;28;20120;-76
2021/04/13 02:13:17;;;;;;;3.15;0.40;;;1.40;99.90;;;;;;5046071;28;20316;-76
2021/04/13 02:15:55;;;;;;;1.33;0.65;;;1.30;99.90;;;;;;5045893;28;20068;-76
2021/04/13 02:18:33;;;;;;;2.00;0.30;;;1.20;99.90;;;;;;5029478;28;20045;-76
2021/04/13 02:20:59;;;;;;;1.67;0.40;;;1.20;99.90;;;;;;5029372;28;20033;-76
2021/04/13 02:23:29;;;;;;;3.60;0.50;;;1.10;99.90;;;;;;5029289;28;20116;-75
2021/04/13 02:25:58;;;;;;;2.55;0.40;;;1.10;99.90;;;;;;5045169;28;20191;-75
2021/04/13 02:28:25;;;;;;;1.65;0.30;;;1.00;99.90;;;;;;5045721;28;20027;-76
2021/04/13 02:30:52;;;;;;;3.08;0.30;;;1.00;99.90;;;;;;5045664;28;20116;-75
2021/04/13 02:33:17;;;;;;;0.77;0.20;;;1.00;99.90;;;;;;5045750;28;20033;-76
2021/04/13 02:35:44;;;;;;;4.50;0.30;;;0.90;99.90;;;;;;5012341;28;20049;-75
2021/04/13 02:38:17;;;;;;;1.70;0.30;;;0.90;99.90;;;;;;5029232;28;20492;-76
2021/04/13 02:40:50;;;;;;;2.50;0.30;;;0.80;99.90;;;;;;5045638;28;20030;-76
2021/04/13 02:43:39;;;;;;;2.92;0.30;;;0.80;99.90;;;;;;5028786;28;20040;-76
2021/04/13 02:46:08;;;;;;;3.40;0.40;;;0.90;99.90;;;;;;5067872;28;20032;-76
2021/04/13 02:48:41;;;;;;;1.48;0.40;;;0.90;99.90;;;;;;5067774;28;20027;-75
2021/04/13 02:51:11;;;;;;;2.00;0.40;;;0.90;99.90;;;;;;5067602;28;20036;-76
2021/04/13 02:53:42;;;;;;;2.80;0.47;;;0.90;99.90;;;;;;5033085;28;20396;-75
2021/04/13 02:56:18;;;;;;;2.03;0.40;;;0.90;99.90;;;;;;5066268;28;20083;-76
2021/04/13 02:59:07;;;;;;;4.20;0.50;;;0.90;99.90;;;;;;5049485;28;20032;-76
2021/04/13 03:01:35;;;;;;;2.95;0.57;;;0.90;99.90;;;;;;5068521;28;20037;-76
2021/04/13 03:04:06;;;;;;;3.03;0.50;;;0.90;99.90;;;;;;5085920;28;20403;-75
2021/04/13 03:06:37;;;;;;;3.60;0.80;;;0.90;99.90;;;;;;5065864;28;20061;-76
2021/04/13 03:09:04;;;;;;;2.70;0.60;;;0.90;99.90;;;;;;5049365;28;20036;-75
2021/04/13 03:11:31;;;;;;;3.03;0.65;;;0.80;99.90;;;;;;5067115;28;20037;-75
2021/04/13 03:13:59;;;;;;;2.78;0.70;;;0.80;99.90;;;;;;5082224;28;20033;-76
2021/04/13 03:16:38;;;;;;;4.55;0.60;;;0.80;99.90;;;;;;5066915;28;20068;-76
2021/04/13 03:19:08;;;;;;;1.40;0.40;;;0.70;99.90;;;;;;5067060;28;20044;-75
2021/04/13 03:21:36;;;;;;;4.13;0.50;;;0.70;99.90;;;;;;5066969;28;20040;-75
2021/04/13 03:24:07;;;;;;;1.65;0.50;;;0.70;99.90;;;;;;5065586;28;20052;-76
2021/04/13 03:26:34;;;;;;;;;;;0.60;99.90;;;;;;5067285;28;20064;-75
2021/04/13 03:29:05;;;;;;;3.88;0.52;;;0.60;99.90;;;;;;5066668;28;19915;-76
2021/04/13 03:31:34;;;;;;;2.95;0.50;;;0.60;99.90;;;;;;5065577;28;20036;-75
2021/04/13 03:34:04;;;;;;;4.03;0.60;;;0.70;99.90;;;;;;5066647;28;20025;-75
2021/04/13 03:36:30;;;;;;;;;;;0.70;99.90;;;;;;5065751;28;20037;-76
2021/04/13 03:39:19;;;;;;;2.90;0.57;;;0.80;99.90;;;;;;5066565;28;20356;-76
2021/04/13 03:41:47;;;;;;;4.03;0.70;;;0.60;99.90;;;;;;5066463;28;20086;-76
2021/04/13 03:44:17;;;;;;;6.97;0.90;;;0.70;99.90;;;;;;5066446;28;20033;-76
2021/04/13 03:46:43;;;;;;;4.13;0.82;;;0.70;99.90;;;;;;5066434;28;20060;-75
2021/04/13 03:49:19;;;;;;;5.93;0.60;;;0.70;99.90;;;;;;5081991;28;20044;-76
2021/04/13 03:51:56;;;;;;;4.10;0.70;;;0.70;99.90;;;;;;5065189;28;20032;-75
2021/04/13 03:54:27;;;;;;;4.03;0.75;;;0.70;99.90;;;;;;5066254;28;20033;-75
2021/04/13 03:56:53;;;;;;;;;;;0.70;99.90;;;;;;5065415;28;20092;-75
2021/04/13 03:59:24;;;;;;;1.75;0.50;;;0.60;99.90;;;;;;5048224;28;19909;-75
2021/04/13 04:01:51;;;;;;;3.03;0.60;;;0.60;99.90;;;;;;5067768;28;20051;-75
2021/04/13 04:04:23;;;;;;;1.40;0.40;;;0.60;99.90;;;;;;5051522;28;20032;-76
2021/04/13 04:06:55;;;;;;;3.03;0.63;;;0.60;99.90;;;;;;5085719;28;20158;-77
2021/04/13 04:09:37;;;;;;;4.00;0.70;;;0.70;99.90;;;;;;5086376;28;20032;-75
2021/04/13 04:12:21;;;;;;;2.22;0.60;;;0.70;99.90;;;;;;5086134;28;20135;-75
2021/04/13 04:15:10;;;;;;;4.40;2.38;;;0.70;99.90;;;;;;5085840;28;20099;-75
2021/04/13 04:17:47;;;;;;;4.13;1.23;;;0.60;99.90;;;;;;5086057;28;20024;-75
2021/04/13 04:20:14;;;;;;;4.07;0.63;;;0.60;99.90;;;;;;5086126;28;20032;-76
2021/04/13 04:22:54;;;;;;;4.50;0.93;;;0.60;99.90;;;;;;5086085;28;20036;-76
2021/04/13 04:25:46;;;;;;;4.63;0.88;;;0.60;99.90;;;;;;5086208;28;20094;-76
2021/04/13 04:28:16;;;;;;;;;;;0.60;99.90;;;;;;5086477;28;20025;-75
2021/04/13 04:30:42;;;;;;;4.80;1.23;;;0.60;99.90;;;;;;5085827;28;19931;-75
2021/04/13 04:33:33;;;;;;;4.57;0.73;;;0.50;99.90;;;;;;5085883;28;20024;-75
2021/04/13 04:35:59;;;;;;;3.38;0.70;;;0.50;99.90;;;;;;5051111;28;20064;-75
2021/04/13 04:38:32;;;;;;;3.35;1.05;;;0.50;99.90;;;;;;5067773;28;20036;-75
2021/04/13 04:41:05;;;;;;;6.03;1.73;;;0.50;99.90;;;;;;5085853;28;20037;-76
2021/04/13 04:43:44;;;;;;;3.72;0.82;;;0.50;99.90;;;;;;5085609;28;20056;-75
2021/04/13 04:46:11;;;;;;;4.60;0.60;;;0.40;99.90;;;;;;5085665;28;20036;-76
2021/04/13 04:48:39;;;;;;;6.72;1.33;;;0.40;99.90;;;;;;5085837;28;20020;-76
2021/04/13 04:51:09;;;;;;;3.20;0.98;;;0.40;99.90;;;;;;5050605;28;20036;-75
2021/04/13 04:53:36;;;;;;;4.00;1.00;;;0.40;99.90;;;;;;5085443;28;20024;-75
2021/04/13 04:56:05;;;;;;;4.43;0.85;;;0.40;99.90;;;;;;5067242;28;20041;-76
2021/04/13 04:58:30;;;;;;;3.00;0.70;;;0.40;99.90;;;;;;5084923;28;20036;-76
2021/04/13 05:00:56;;;;;;;2.33;0.68;;;0.30;99.90;;;;;;5066725;28;20043;-75
2021/04/13 05:03:24;;;;;;;3.72;1.17;;;0.30;99.90;;;;;;5067128;28;20094;-76
2021/04/13 05:05:50;;;;;;;3.22;0.80;;;0.40;99.90;;;;;;5084846;28;20046;-76
2021/04/13 05:08:18;;;;;;;5.53;0.90;;;0.30;99.90;;;;;;5085107;28;20055;-76
2021/04/13 05:10:44;;;;;;;4.75;0.75;;;0.30;99.90;;;;;;5088151;28;20067;-77
2021/04/13 05:13:10;;;;;;;4.68;1.00;;;0.40;99.90;;;;;;5064118;28;20029;-76
2021/04/13 05:15:36;;;;;;;5.53;1.00;;;0.40;99.90;;;;;;5066715;28;20044;-77
2021/04/13 05:18:03;;;;;;;4.80;1.10;;;0.50;99.90;;;;;;5065939;28;20104;-77
2021/04/13 05:20:28;;;;;;;5.47;1.40;;;0.50;99.90;;;;;;5066071;28;20041;-77
2021/04/13 05:22:54;;;;;;;5.93;1.23;;;0.60;99.90;;;;;;5065985;28;20404;-77
2021/04/13 05:25:21;;;;;;;7.97;1.95;;;0.70;99.90;;;;;;5066447;28;20035;-77
2021/04/13 05:27:47;;;;;;;4.82;1.38;;;0.80;99.90;;;;;;5066115;28;20029;-77
2021/04/13 05:30:17;;;;;;;6.05;1.98;;;0.80;99.90;;;;;;5066341;28;20597;-76
2021/04/13 05:32:43;;;;;;;5.70;1.70;;;0.90;99.90;;;;;;5066219;28;20100;-76
2021/04/13 05:35:10;;;;;;;3.95;1.52;;;0.90;99.90;;;;;;5084013;28;20098;-77
2021/04/13 05:37:36;;;;;;;5.18;1.70;;;0.90;99.90;;;;;;5066173;28;20092;-76
2021/04/13 05:40:05;;;;;;;4.25;1.50;;;1.00;99.90;;;;;;5084413;28;20075;-76
2021/04/13 05:42:32;;;;;;;3.47;1.15;;;1.10;99.90;;;;;;5065514;28;20031;-76
2021/04/13 05:44:58;;;;;;;6.05;1.48;;;1.10;99.90;;;;;;5066087;28;20032;-77
2021/04/13 05:47:27;;;;;;;5.13;1.67;;;1.10;99.90;;;;;;5066035;28;20029;-76
2021/04/13 05:49:52;;;;;;;8.50;2.80;;;1.20;99.90;;;;;;5066294;28;20040;-76
2021/04/13 05:52:18;;;;;;;5.63;1.75;;;1.20;99.90;;;;;;5049536;28;20075;-77
2021/04/13 05:54:43;;;;;;;5.97;1.98;;;1.30;99.90;;;;;;5065944;28;20044;-77
2021/04/13 05:57:12;;;;;;;4.93;1.50;;;1.30;99.90;;;;;;5056589;28;20056;-77
2021/04/13 05:59:38;;;;;;;9.02;2.42;;;1.30;99.90;;;;;;5065773;28;20032;-76
2021/04/13 06:02:04;;;;;;;7.10;2.33;;;1.40;99.90;;;;;;5085433;28;20023;-77
2021/04/13 06:04:30;;;;;;;6.78;2.72;;;1.50;99.90;;;;;;5069204;28;20060;-76
2021/04/13 06:06:56;;;;;;;4.90;2.17;;;1.50;99.90;;;;;;5064215;28;20056;-77
2021/04/13 06:09:22;;;;;;;10.50;2.25;;;1.60;99.90;;;;;;5049634;28;20120;-76
2021/04/13 06:11:49;;;;;;;10.38;2.38;;;1.70;99.90;;;;;;5049645;28;20033;-77
2021/04/13 06:14:16;;;;;;;4.88;1.90;;;1.80;99.90;;;;;;5032505;28;20041;-77
2021/04/13 06:16:44;;;;;;;7.32;3.13;;;1.80;99.90;;;;;;5049668;28;20067;-76
2021/04/13 06:19:09;;;;;;;9.80;2.35;;;1.90;99.90;;;;;;5049483;28;20048;-76
2021/04/13 06:21:35;;;;;;;3.00;1.42;;;2.10;99.90;;;;;;5049528;28;20473;-76
2021/04/13 06:24:01;;;;;;;6.88;1.75;;;2.10;99.90;;;;;;5049216;28;20032;-77
2021/04/13 06:26:27;;;;;;;6.07;1.85;;;2.30;99.90;;;;;;5066190;28;20033;-76
2021/04/13 06:28:52;;;;;;;7.05;1.88;;;2.40;99.90;;;;;;5048780;28;20044;-77
2021/04/13 06:31:18;;;;;;;10.30;1.95;;;2.50;99.90;;;;;;5065917;28;20393;-77
2021/04/13 06:33:44;;;;;;;11.85;1.67;;;2.60;99.90;;;;;;5065879;28;20477;-77
2021/04/13 06:36:16;;;;;;;6.68;1.48;;;2.70;99.90;;;;;;5049129;28;20036;-77
2021/04/13 06:38:42;;;;;;;7.75;2.05;;;2.80;99.90;;;;;;5032774;28;20040;-77
2021/04/13 06:41:26;;;;;;;7.65;1.42;;;3.00;99.90;;;;;;5065833;28;20412;-77
2021/04/13 06:44:25;;;;;;;5.70;1.25;;;3.10;99.90;;;;;;5066772;28;20052;-77
2021/04/13 06:47:10;;;;;;;8.32;1.38;;;3.20;99.90;;;;;;5067098;28;20028;-77
2021/04/13 06:49:38;;;;;;;4.88;1.00;;;3.40;99.90;;;;;;5066924;28;20029;-77
2021/04/13 06:52:19;;;;;;;7.78;0.93;;;3.50;99.90;;;;;;5032451;28;20040;-77
2021/04/13 06:55:26;;;;;;;3.78;1.33;;;3.60;99.90;;;;;;5032245;28;20041;-77
2021/04/13 06:58:06;;;;;;;5.43;1.00;;;3.80;99.90;;;;;;5032156;28;20043;-78
2021/04/13 07:00:43;;;;;;;5.28;0.82;;;4.00;99.90;;;;;;5066811;28;20059;-79
2021/04/13 07:03:34;;;;;;;8.00;1.10;;;4.20;99.90;;;;;;5062719;28;20035;-78
2021/04/13 07:06:03;;;;;;;7.68;1.15;;;4.30;99.90;;;;;;5068545;28;20028;-78
2021/04/13 07:08:54;;;;;;;6.40;1.13;;;4.50;99.90;;;;;;5086357;28;20096;-78
2021/04/13 07:11:38;;;;;;;7.05;1.50;;;4.50;99.90;;;;;;5068590;28;20365;-79
2021/04/13 07:14:23;;;;;;;8.50;2.13;;;4.60;99.90;;;;;;5051040;28;20199;-78
2021/04/13 07:17:09;;;;;;;4.65;0.80;;;4.80;99.90;;;;;;5068169;28;20070;-78
2021/04/13 07:19:49;;;;;;;9.68;0.90;;;4.90;99.90;;;;;;5067570;28;20098;-78
2021/04/13 07:22:35;;;;;;;6.15;0.93;;;5.00;99.90;;;;;;5068161;28;20548;-78
2021/04/13 07:25:11;;;;;;;5.72;0.80;;;5.00;99.90;;;;;;5086144;28;20533;-78
2021/04/13 07:27:42;;;;;;;3.97;0.80;;;5.10;99.90;;;;;;5085860;28;20103;-78
2021/04/13 07:30:28;;;;;;;9.23;0.90;;;5.40;99.90;;;;;;5068131;28;20033;-78
2021/04/13 07:32:56;;;;;;;8.00;0.85;;;5.40;99.90;;;;;;5085932;28;20044;-78
2021/04/13 07:35:23;;;;;;;3.65;0.55;;;5.60;99.90;;;;;;5067476;28;20044;-78
2021/04/13 07:37:52;;;;;;;6.15;0.73;;;5.80;99.90;;;;;;5051494;28;20024;-78
2021/04/13 07:40:28;;;;;;;3.40;0.80;;;5.60;99.90;;;;;;5041222;28;20044;-78
2021/04/13 07:43:25;;;;;;;5.00;0.80;;;5.90;99.90;;;;;;5065327;28;20024;-78
2021/04/13 07:46:09;;;;;;;4.97;0.40;;;6.20;99.90;;;;;;5050333;28;20024;-79
2021/04/13 07:49:05;;;;;;;4.25;0.40;;;6.40;99.90;;;;;;5081223;28;20089;-78
2021/04/13 07:51:42;;;;;;;7.30;0.38;;;6.10;99.90;;;;;;5066843;28;20028;-78
2021/04/13 07:54:31;;;;;;;5.57;0.45;;;6.30;99.90;;;;;;5063845;28;20119;-79
2021/04/13 07:57:02;;;;;;;3.83;0.38;;;6.40;99.90;;;;;;5066140;28;20024;-78
2021/04/13 07:59:54;;;;;;;3.03;0.30;;;6.50;99.90;;;;;;5083472;28;20539;-78
2021/04/13 08:02:19;;;;;;;3.03;0.20;;;6.40;99.90;;;;;;5084142;28;20048;-78
2021/04/13 08:05:09;;;;;;;6.43;0.30;;;6.20;99.90;;;;;;5050211;28;20070;-78
2021/04/13 08:07:57;;;;;;;3.95;0.20;;;6.50;99.90;;;;;;5048275;28;20083;-77
2021/04/13 08:10:26;;;;;;;5.65;0.22;;;6.50;99.90;;;;;;5084099;28;20096;-77
2021/04/13 08:12:56;;;;;;;3.40;0.20;;;6.50;99.90;;;;;;5084888;28;20028;-77
2021/04/13 08:15:37;;;;;;;;;;;6.40;99.90;;;;;;5067100;28;20080;-78
2021/04/13 08:18:10;;;;;;;7.30;0.57;;;6.20;99.90;;;;;;5085129;28;19913;-77
2021/04/13 08:20:43;;;;;;;3.53;0.30;;;6.80;99.90;;;;;;5083947;28;20031;-78
2021/04/13 08:23:31;;;;;;;1.70;0.10;;;6.90;99.90;;;;;;5084584;28;20028;-78
2021/04/13 08:26:11;;;;;;;5.75;0.38;;;7.10;99.90;;;;;;5083912;28;20036;-78
2021/04/13 08:28:36;;;;;;;5.63;0.28;;;7.10;99.90;;;;;;5084383;28;20028;-78
2021/04/13 08:34:11;;;;;;;6.15;0.13;;;7.00;99.90;;;;;;5083820;28;20456;-77
2021/04/13 08:36:50;;;;;;;5.25;0.20;;;7.30;99.90;;;;;;5083461;28;20059;-78
2021/04/13 08:39:30;;;;;;;1.40;0.20;;;7.50;99.90;;;;;;5066968;28;20123;-78
2021/04/13 08:42:17;;;;;;;3.50;0.20;;;7.40;99.90;;;;;;5083842;28;20068;-77
2021/04/13 08:44:57;;;;;;;8.40;0.28;;;7.20;99.90;;;;;;5083503;28;20037;-78
2021/04/13 08:47:43;;;;;;;2.85;0.15;;;7.50;99.90;;;;;;5083893;28;20050;-78
2021/04/13 08:50:49;;;;;;;1.67;0.35;;;7.70;99.90;;;;;;5083464;28;20108;-78
2021/04/13 08:53:39;;;;;;;2.08;0.10;;;7.90;99.90;;;;;;5063309;28;20049;-78
2021/04/13 08:56:22;;;;;;;4.88;0.30;;;8.00;99.90;;;;;;5083323;28;20051;-78
2021/04/13 08:58:51;;;;;;;4.53;0.30;;;7.60;99.90;;;;;;5083716;28;20060;-78
2021/04/13 09:01:32;;;;;;;5.18;0.10;;;7.60;99.90;;;;;;5083053;28;20032;-77
2021/04/13 09:03:59;;;;;;;2.58;0.20;;;7.60;99.90;;;;;;5083224;28;20071;-78
2021/04/13 09:06:51;;;;;;;1.80;0.20;;;8.10;99.90;;;;;;5063414;28;20121;-78
2021/04/13 09:09:44;;;;;;;3.47;0.20;;;8.20;99.90;;;;;;5085039;28;20036;-78
2021/04/13 09:12:10;;;;;;;2.72;0.17;;;8.10;99.90;;;;;;5066981;28;20058;-78
2021/04/13 09:14:51;;;;;;;4.85;0.50;;;7.30;99.90;;;;;;5084654;28;20067;-78
2021/04/13 09:17:20;;;;;;;1.90;0.13;;;7.20;99.90;;;;;;5083574;28;20525;-78
2021/04/13 09:19:58;;;;;;;2.72;0.32;;;7.70;99.90;;;;;;5066818;28;20041;-78
2021/04/13 09:22:34;;;;;;;3.17;0.30;;;7.90;99.90;;;;;;5050042;28;20032;-78
2021/04/13 09:25:12;;;;;;;1.52;0.15;;;8.00;99.90;;;;;;5084541;28;20161;-78
2021/04/13 09:27:44;;;;;;;3.28;0.10;;;8.40;99.90;;;;;;5066659;28;20048;-78
2021/04/13 09:30:20;;;;;;;2.50;0.13;;;8.20;99.90;;;;;;5066590;28;20063;-78
2021/04/13 09:32:47;;;;;;;4.53;0.15;;;8.00;99.90;;;;;;5084564;28;20032;-78
2021/04/13 09:35:31;;;;;;;3.33;0.20;;;7.50;99.90;;;;;;5049910;28;20116;-78
2021/04/13 09:38:16;;;;;;;3.15;0.20;;;7.80;99.90;;;;;;5070462;28;20073;-78
2021/04/13 09:41:00;;;;;;;1.52;0.13;;;7.30;99.90;;;;;;5070398;28;20052;-78
2021/04/13 09:43:36;;;;;;;1.20;0.10;;;7.40;99.90;;;;;;5053605;28;20051;-78
2021/04/13 09:46:21;;;;;;;8.90;1.13;;;7.80;99.90;;;;;;5088373;28;20054;-78
2021/04/13 09:49:10;;;;;;;1.20;0.10;;;8.30;99.90;;;;;;5070324;28;20117;-78
2021/04/13 09:52:05;;;;;;;2.65;0.10;;;8.30;99.90;;;;;;5069954;28;20024;-78
2021/04/13 09:54:39;;;;;;;2.20;0.43;;;8.90;99.90;;;;;;5070038;28;20354;-78
2021/04/13 09:57:50;;;;;;;1.63;0.10;;;9.00;99.90;;;;;;5053505;28;20028;-78
2021/04/13 10:00:30;;;;;;;3.88;0.25;;;9.20;99.90;;;;;;5070043;28;20035;-78
2021/04/13 10:03:53;;;;;;;3.38;0.20;;;8.50;99.90;;;;;;5053186;28;20033;-79
2021/04/13 10:06:26;;;;;;;5.03;0.13;;;8.40;99.90;;;;;;4992620;28;20038;-78
2021/04/13 10:09:01;;;;;;;1.67;0.20;;;9.20;99.90;;;;;;5007882;28;20073;-79
2021/04/13 10:11:58;;;;;;;3.22;0.10;;;9.20;99.90;;;;;;5060613;28;20037;-78
2021/04/13 10:14:52;;;;;;;2.22;0.10;;;9.60;99.90;;;;;;5087558;28;20127;-80
2021/04/13 10:17:40;;;;;;;1.10;0.10;;;10.10;99.90;;;;;;5088344;28;20029;-79
2021/04/13 10:20:27;;;;;;;5.35;0.10;;;10.10;99.90;;;;;;5069393;28;20080;-79
2021/04/13 10:23:27;;;;;;;1.75;0.10;;;10.30;99.90;;;;;;5087428;28;20039;-78
2021/04/13 10:26:16;;;;;;;0.75;0.20;;;9.30;99.90;;;;;;5052705;28;20036;-80
2021/04/13 10:28:54;;;;;;;4.78;0.20;;;8.90;99.90;;;;;;5069552;28;20037;-78
2021/04/13 10:31:35;;;;;;;2.75;0.10;;;8.40;99.90;;;;;;5069364;28;20486;-78
2021/04/13 10:34:40;;;;;;;3.58;0.13;;;8.00;99.90;;;;;;5069196;28;20088;-78
2021/04/13 10:37:29;;;;;;;2.75;0.10;;;7.80;99.90;;;;;;5087178;28;20029;-78
2021/04/13 10:40:33;;;;;;;2.30;0.13;;;8.80;99.90;;;;;;5069212;28;20036;-78
2021/04/13 10:43:33;;;;;;;1.98;0.10;;;9.20;99.90;;;;;;5087060;28;20031;-78
2021/04/13 10:46:24;;;;;;;0.73;0.10;;;9.90;99.90;;;;;;5069142;28;20112;-78
2021/04/13 10:49:20;;;;;;;1.83;0.10;;;10.30;99.90;;;;;;5086406;28;20028;-78
2021/04/13 10:52:21;;;;;;;1.77;0.10;;;10.20;99.90;;;;;;5069144;28;20025;-78
2021/04/13 10:55:25;;;;;;;0.93;0.05;;;9.00;98.70;;;;;;5068877;28;20051;-78
2021/04/13 10:58:45;;;;;;;2.38;0.10;;;8.60;99.90;;;;;;5054037;28;20465;-78
2021/04/13 11:01:36;;;;;;;2.67;0.10;;;8.50;99.90;;;;;;5044291;28;20073;-78
2021/04/13 11:04:33;;;;;;;3.55;0.10;;;8.20;99.90;;;;;;5048650;28;20033;-78
2021/04/13 11:07:21;;;;;;;1.75;0.10;;;9.00;99.90;;;;;;5031922;28;20041;-78
2021/04/13 11:10:07;;;;;;;2.15;0.10;;;9.60;99.90;;;;;;5032004;28;20029;-78
2021/04/13 11:12:55;;;;;;;1.95;0.28;;;10.30;99.90;;;;;;5065499;28;20037;-78
2021/04/13 11:16:04;;;;;;;2.15;0.10;;;10.80;97.70;;;;;;5049333;28;20037;-78
2021/04/13 11:18:50;;;;;;;1.50;0.15;;;11.00;99.90;;;;;;5035158;28;20473;-78
2021/04/13 11:21:38;;;;;;;1.63;0.10;;;11.00;99.40;;;;;;5033712;28;20078;-78
2021/04/13 11:24:37;;;;;;;2.25;0.10;;;10.90;99.80;;;;;;5048387;28;20076;-79
2021/04/13 11:27:22;;;;;;;0.85;0.10;;;10.90;96.70;;;;;;5048225;28;20051;-79
2021/04/13 11:29:57;;;;;;;0.93;0.10;;;10.80;96.60;;;;;;5037698;28;20120;-79
2021/04/13 11:32:25;;;;;;;1.73;0.10;;;10.40;96.80;;;;;;5051093;28;20178;-79
2021/04/13 11:35:07;;;;;;;1.27;0.40;;;10.50;95.30;;;;;;5067714;28;20047;-79
2021/04/13 11:37:48;;;;;;;1.45;0.08;;;10.80;93.60;;;;;;5068147;28;20032;-79
2021/04/13 11:40:27;;;;;;;2.30;0.10;;;10.40;93.40;;;;;;5069259;28;20062;-79
2021/04/13 11:42:57;;;;;;;1.73;0.08;;;10.70;93.60;;;;;;5069425;28;20036;-79
2021/04/13 11:45:35;;;;;;;;;;;10.00;93.10;;;;;;5052094;28;20451;-79
2021/04/13 11:48:39;;;;;;;1.40;0.10;;;9.60;93.90;;;;;;5068245;28;19908;-79
2021/04/13 11:51:23;;;;;;;0.73;0.10;;;9.40;92.60;;;;;;5068211;28;20039;-79
2021/04/13 11:53:52;;;;;;;1.77;0.10;;;9.50;92.40;;;;;;5050985;28;20033;-79
2021/04/13 11:56:21;;;;;;;2.08;0.03;;;9.40;93.00;;;;;;5067969;28;20040;-79
2021/04/13 11:59:12;;;;;;;2.05;0.10;;;9.30;91.80;;;;;;5051270;28;20468;-79
2021/04/13 12:01:40;;;;;;;1.55;0.10;;;9.00;92.60;;;;;;5050882;28;20063;-79
2021/04/13 12:04:21;;;;;;;1.92;0.10;;;9.40;93.40;;;;;;5067512;28;20059;-79
2021/04/13 12:07:05;;;;;;;1.90;0.20;;;10.20;93.90;;;;;;5067266;28;20427;-79
2021/04/13 12:09:38;;;;;;;2.58;0.20;;;10.40;92.20;;;;;;5067500;28;20028;-79
2021/04/13 12:12:33;;;;;;;1.45;0.10;;;10.70;91.90;;;;;;5084026;28;20024;-79
2021/04/13 12:15:02;;;;;;;4.03;0.10;;;10.10;92.30;;;;;;5048109;28;20052;-79
2021/04/13 12:17:40;;;;;;;2.22;0.10;;;9.40;91.90;;;;;;5085767;28;20040;-79
2021/04/13 12:20:25;;;;;;;3.13;0.10;;;9.50;94.10;;;;;;5067296;28;20035;-79
2021/04/13 12:22:57;;;;;;;1.05;0.10;;;9.40;91.70;;;;;;5050604;28;20491;-79
2021/04/13 12:25:43;;;;;;;1.17;0.10;;;9.40;93.00;;;;;;5050382;28;20039;-78
2021/04/13 12:28:12;;;;;;;0.63;0.10;;;9.40;93.60;;;;;;5050629;28;20036;-79
2021/04/13 12:30:40;;;;;;;1.25;0.10;;;9.90;94.10;;;;;;5067290;28;20035;-79
2021/04/13 12:33:08;;;;;;;0.60;0.15;;;10.80;92.60;;;;;;5067049;28;20043;-79
2021/04/13 12:35:46;;;;;;;1.42;0.10;;;10.80;93.20;;;;;;5050513;28;20142;-79
2021/04/13 12:38:50;;;;;;;1.58;0.10;;;11.00;93.10;;;;;;5067836;28;20033;-79
2021/04/13 12:41:34;;;;;;;1.05;0.10;;;10.50;91.00;;;;;;5023064;28;20067;-81
2021/04/13 12:44:11;;;;;;;0.60;0.10;;;10.60;90.20;;;;;;5023069;28;20042;-79
2021/04/13 12:46:36;;;;;;;2.25;0.10;;;10.10;89.50;;;;;;4990245;28;20038;-79
2021/04/13 12:49:27;;;;;;;1.63;0.10;;;9.70;90.90;;;;;;5022854;28;20109;-79
2021/04/13 12:52:13;;;;;;;0.82;0.08;;;9.80;91.50;;;;;;5023181;28;20025;-79
2021/04/13 12:54:44;;;;;;;2.00;0.00;;;10.20;90.00;;;;;;5022478;28;20072;-79
2021/04/13 12:57:20;;;;;;;2.38;0.10;;;10.20;93.00;;;;;;5006394;28;20405;-79
2021/04/13 12:59:46;;;;;;;1.58;0.10;;;9.80;97.40;;;;;;5022779;28;20089;-79
2021/04/13 13:02:30;;;;;;;1.63;0.10;;;9.80;97.40;;;;;;5022645;28;20042;-79
2021/04/13 13:05:26;;;;;;;1.77;0.10;;;9.90;98.00;;;;;;5006109;28;20101;-79
2021/04/13 13:08:27;;;;;;;1.63;0.10;;;9.80;99.10;;;;;;4934811;29;20060;-78
2021/04/13 13:11:07;;;;;;;0.88;0.08;;;9.40;99.10;;;;;;4924639;29;20063;-79
2021/04/13 13:13:35;;;;;;;1.17;0.10;;;9.10;99.90;;;;;;4929727;29;20051;-79
2021/04/13 13:16:15;;;;;;;1.27;0.10;;;9.20;99.90;;;;;;4961809;29;20043;-78
2021/04/13 13:18:48;;;;;;;1.48;0.10;;;9.10;99.90;;;;;;4951983;29;20125;-79
2021/04/13 13:21:19;;;;;;;2.33;0.10;;;8.80;99.90;;;;;;4952164;29;20099;-79
2021/04/13 13:23:53;;;;;;;0.70;0.10;;;8.90;99.90;;;;;;4968007;29;20047;-79
2021/04/13 13:26:24;;;;;;;1.23;0.10;;;8.80;98.10;;;;;;4968030;29;20047;-79
2021/04/13 13:28:55;;;;;;;1.83;0.10;;;8.90;96.70;;;;;;4967860;29;20035;-79
2021/04/13 13:31:37;;;;;;;0.20;0.00;;;8.80;92.20;;;;;;4967642;29;20091;-79
2021/04/13 13:34:04;;;;;;;0.77;0.10;;;9.20;91.70;;;;;;4951642;29;20464;-79
2021/04/13 13:36:38;;;;;;;1.65;0.10;;;9.00;91.40;;;;;;4951604;29;20046;-79
2021/04/13 13:39:14;;;;;;;2.47;0.10;;;9.00;91.60;;;;;;4951513;29;20043;-78
2021/04/13 13:41:54;;;;;;;1.63;0.10;;;9.30;92.60;;;;;;4951475;29;20050;-78
2021/04/13 13:44:25;;;;;;;2.50;0.15;;;9.40;93.30;;;;;;4998733;28;20037;-79
2021/04/13 13:47:01;;;;;;;0.28;0.10;;;9.20;94.10;;;;;;5050293;28;20037;-78
2021/04/13 13:49:27;;;;;;;1.15;0.20;;;8.80;94.40;;;;;;5050159;28;20404;-78
2021/04/13 13:52:07;;;;;;;1.17;0.10;;;8.60;94.30;;;;;;5050285;28;20033;-78
2021/04/13 13:54:33;;;;;;;2.10;0.10;;;8.40;95.90;;;;;;5049839;28;20037;-78
2021/04/13 13:57:11;;;;;;;2.53;0.10;;;8.30;95.00;;;;;;5049838;28;20028;-79
2021/04/13 13:59:38;;;;;;;2.50;0.38;;;8.30;95.50;;;;;;5050025;28;20033;-79